createdAt,value
2019-04-21T00:00:37.356Z,15.45
2019-04-21T00:03:16.448Z,12.45
2019-04-21T00:05:57.176Z,13.55
2019-04-21T00:08:44.162Z,13.03
2019-04-21T00:11:05.891Z,12.70
2019-04-21T00:13:31.308Z,13.70
2019-04-21T00:15:48.814Z,14.18
2019-04-21T00:18:40.748Z,14.93
2019-04-21T00:21:11.724Z,18.20
2019-04-21T00:23:54.087Z,13.68
2019-04-21T00:26:26.511Z,13.65
2019-04-21T00:29:05.058Z,14.20
2019-04-21T00:31:24.550Z,14.90
2019-04-21T00:33:41.624Z,20.92
2019-04-21T00:36:15.937Z,19.70
2019-04-21T00:39:18.631Z,19.02
2019-04-21T00:41:29.456Z,19.02
2019-04-21T00:43:59.601Z,19.52
2019-04-21T00:46:33.176Z,21.15
2019-04-21T00:49:02.011Z,17.17
2019-04-21T00:51:46.807Z,17.45
2019-04-21T00:54:18.471Z,19.17
2019-04-21T00:56:46.706Z,17.07
2019-04-21T00:59:14.955Z,18.73
2019-04-21T01:01:46.075Z,20.32
2019-04-21T01:04:15.350Z,18.10
2019-04-21T01:06:48.351Z,16.07
2019-04-21T01:09:13.837Z,16.05
2019-04-21T01:11:49.289Z,20.35
2019-04-21T01:14:29.797Z,18.10
2019-04-21T01:16:51.693Z,21.40
2019-04-21T01:19:16.819Z,22.55
2019-04-21T01:21:31.816Z,21.57
2019-04-21T01:24:07.832Z,18.35
2019-04-21T01:26:43.776Z,16.40
2019-04-21T01:29:19.284Z,20.02
2019-04-21T01:32:03.729Z,19.52
2019-04-21T01:34:28.828Z,22.35
2019-04-21T01:36:54.241Z,21.30
2019-04-21T01:39:39.344Z,18.95
2019-04-21T01:42:04.967Z,20.60
2019-04-21T01:44:38.990Z,20.20
2019-04-21T01:46:58.772Z,23.90
2019-04-21T01:49:26.672Z,19.80
2019-04-21T01:52:17.843Z,22.37
2019-04-21T01:55:00.350Z,21.85
2019-04-21T01:57:34.505Z,18.75
2019-04-21T02:00:02.307Z,20.12
2019-04-21T02:02:47.705Z,20.62
2019-04-21T02:05:17.480Z,19.05
2019-04-21T02:07:41.820Z,22.90
2019-04-21T02:10:17.670Z,20.00
2019-04-21T02:12:48.400Z,21.77
2019-04-21T02:15:26.861Z,19.82
2019-04-21T02:17:51.397Z,20.82
2019-04-21T02:20:12.035Z,20.12
2019-04-21T02:23:08.448Z,17.75
2019-04-21T02:25:23.147Z,21.17
2019-04-21T02:28:00.805Z,18.70
2019-04-21T02:30:36.209Z,23.25
2019-04-21T02:33:16.944Z,16.80
2019-04-21T02:35:39.489Z,18.62
2019-04-21T02:40:44.976Z,17.10
2019-04-21T02:43:11.428Z,20.97
2019-04-21T02:45:39.355Z,25.90
2019-04-21T02:53:21.142Z,20.02
2019-04-21T02:55:45.718Z,19.92
2019-04-21T03:00:59.613Z,19.07
2019-04-21T03:03:41.741Z,19.55
2019-04-21T03:06:08.758Z,20.12
2019-04-21T03:08:44.328Z,24.12
2019-04-21T03:13:41.763Z,27.05
2019-04-21T03:16:18.447Z,23.18
2019-04-21T03:18:54.243Z,23.52
2019-04-21T03:23:56.351Z,21.45
2019-04-21T03:26:27.270Z,23.77
2019-04-21T03:34:31.767Z,23.20
2019-04-21T03:36:43.913Z,22.22
2019-04-21T03:38:51.049Z,20.77
2019-04-21T03:41:26.483Z,21.25
2019-04-21T03:43:52.622Z,22.62
2019-04-21T03:46:41.276Z,24.63
2019-04-21T03:51:29.420Z,25.17
2019-04-21T03:53:57.638Z,22.77
2019-04-21T04:01:57.794Z,24.72
2019-04-21T04:04:27.953Z,22.62
2019-04-21T04:07:24.224Z,25.77
2019-04-21T04:09:54.035Z,23.45
2019-04-21T04:12:32.988Z,26.75
2019-04-21T04:14:55.334Z,29.02
2019-04-21T04:17:20.363Z,26.55
2019-04-21T04:29:59.280Z,29.60
2019-04-21T04:32:30.691Z,26.23
2019-04-21T04:35:05.753Z,30.17
2019-04-21T04:37:32.808Z,30.95
2019-04-21T04:40:14.274Z,29.50
2019-04-21T04:45:28.366Z,28.38
2019-04-21T04:47:51.255Z,28.62
2019-04-21T04:50:22.577Z,26.57
2019-04-21T04:52:45.818Z,26.55
2019-04-21T04:55:27.073Z,25.92
2019-04-21T04:58:01.030Z,25.40
2019-04-21T05:00:28.751Z,27.00
2019-04-21T05:03:01.186Z,28.85
2019-04-21T05:05:40.343Z,27.93
2019-04-21T05:07:57.742Z,34.40
2019-04-21T05:12:53.214Z,30.57
2019-04-21T05:15:25.511Z,26.37
2019-04-21T05:18:02.402Z,27.45
2019-04-21T05:22:54.486Z,25.32
2019-04-21T05:25:18.560Z,31.17
2019-04-21T05:27:55.368Z,26.17
2019-04-21T05:30:33.846Z,27.22
2019-04-21T05:33:10.769Z,30.95
2019-04-21T05:35:45.203Z,25.90
2019-04-21T05:38:17.157Z,29.23
2019-04-21T05:40:40.135Z,24.65
2019-04-21T05:43:21.393Z,28.55
2019-04-21T05:45:53.535Z,27.65
2019-04-21T05:50:53.762Z,29.12
2019-04-21T05:53:29.538Z,26.30
2019-04-21T05:55:58.674Z,28.05
2019-04-21T05:58:27.279Z,30.85
2019-04-21T06:01:33.423Z,27.48
2019-04-21T06:03:49.240Z,25.02
2019-04-21T06:06:22.033Z,31.25
2019-04-21T06:08:49.718Z,27.27
2019-04-21T06:11:28.813Z,24.92
2019-04-21T06:13:55.034Z,23.18
2019-04-21T06:16:43.005Z,29.10
2019-04-21T06:19:05.214Z,27.60
2019-04-21T06:21:21.732Z,28.50
2019-04-21T06:24:13.095Z,24.92
2019-04-21T06:26:52.318Z,33.67
2019-04-21T06:28:56.894Z,26.12
2019-04-21T06:31:57.920Z,28.32
2019-04-21T06:33:58.541Z,26.87
2019-04-21T06:36:47.435Z,27.15
2019-04-21T06:39:12.118Z,28.83
2019-04-21T06:46:40.774Z,27.77
2019-04-21T06:49:19.467Z,24.98
2019-04-21T06:51:37.161Z,24.98
2019-04-21T06:54:17.467Z,30.40
2019-04-21T06:57:21.858Z,27.22
2019-04-21T06:59:09.359Z,31.15
2019-04-21T07:09:21.000Z,28.42
2019-04-21T07:11:44.553Z,27.90
2019-04-21T07:16:50.862Z,30.35
2019-04-21T07:19:30.790Z,32.25
2019-04-21T07:21:54.233Z,25.37
2019-04-21T07:24:30.418Z,28.32
2019-04-21T07:26:55.625Z,27.48
2019-04-21T07:29:32.212Z,32.50
2019-04-21T07:31:58.686Z,31.37
2019-04-21T07:39:29.729Z,30.00
2019-04-21T07:41:53.990Z,30.20
2019-04-21T07:44:28.893Z,26.75
2019-04-21T07:46:57.306Z,33.90
2019-04-21T07:49:39.941Z,29.55
2019-04-21T07:52:33.536Z,30.82
2019-04-21T07:55:05.551Z,34.50
2019-04-21T07:57:28.112Z,35.63
2019-04-21T08:00:08.391Z,33.42
2019-04-21T08:02:29.170Z,33.15
2019-04-21T08:05:09.971Z,33.02
2019-04-21T08:07:41.519Z,32.33
2019-04-21T08:09:57.223Z,31.55
2019-04-21T08:12:24.633Z,32.65
2019-04-21T08:15:09.660Z,28.73
2019-04-21T08:17:35.956Z,33.28
2019-04-21T08:20:07.812Z,28.17
2019-04-21T08:22:43.207Z,26.42
2019-04-21T08:25:08.739Z,27.15
2019-04-21T08:27:55.570Z,25.60
2019-04-21T08:30:14.299Z,27.25
2019-04-21T08:32:57.294Z,26.20
2019-04-21T08:35:33.662Z,24.92
2019-04-21T08:37:44.980Z,27.37
2019-04-21T08:42:44.751Z,23.38
2019-04-21T08:45:21.992Z,24.65
2019-04-21T08:47:52.118Z,22.98
2019-04-21T08:50:20.823Z,27.37
2019-04-21T08:53:08.022Z,23.15
2019-04-21T08:55:32.102Z,23.38
2019-04-21T08:58:15.236Z,22.10
2019-04-21T09:00:56.362Z,24.73
2019-04-21T09:03:43.388Z,22.55
2019-04-21T09:06:18.937Z,19.92
2019-04-21T09:08:46.110Z,20.70
2019-04-21T09:11:14.964Z,22.75
2019-04-21T09:13:40.963Z,22.25
2019-04-21T09:16:16.944Z,24.67
2019-04-21T09:18:40.445Z,25.57
2019-04-21T09:21:21.868Z,18.15
2019-04-21T09:23:45.305Z,19.57
2019-04-21T09:26:20.087Z,23.25
2019-04-21T09:28:45.214Z,21.20
2019-04-21T09:31:06.371Z,25.60
2019-04-21T09:33:40.721Z,21.05
2019-04-21T09:36:09.701Z,20.97
2019-04-21T09:38:41.546Z,25.40
2019-04-21T09:41:14.297Z,15.53
2019-04-21T09:43:45.307Z,20.82
2019-04-21T09:46:09.825Z,18.10
2019-04-21T09:48:49.861Z,19.98
2019-04-21T09:51:11.066Z,22.87
2019-04-21T09:53:42.227Z,19.70
2019-04-21T09:56:16.700Z,23.80
2019-04-21T09:58:49.462Z,20.75
2019-04-21T10:01:22.817Z,19.80
2019-04-21T10:03:48.649Z,21.12
2019-04-21T10:06:18.750Z,19.17
2019-04-21T10:08:49.506Z,19.00
2019-04-21T10:11:20.768Z,17.87
2019-04-21T10:13:50.713Z,17.62
2019-04-21T10:16:24.627Z,21.90
2019-04-21T10:18:54.789Z,16.82
2019-04-21T10:21:25.829Z,16.20
2019-04-21T10:23:55.166Z,13.50
2019-04-21T10:26:24.503Z,19.00
2019-04-21T10:28:58.585Z,22.52
2019-04-21T10:31:24.990Z,18.40
2019-04-21T10:33:54.557Z,16.60
2019-04-21T10:36:26.858Z,18.00
2019-04-21T10:38:55.838Z,20.30
2019-04-21T10:41:26.083Z,15.68
2019-04-21T10:43:55.589Z,18.48
2019-04-21T10:46:24.918Z,17.35
2019-04-21T10:48:55.010Z,18.37
2019-04-21T10:51:25.447Z,16.32
2019-04-21T10:53:55.997Z,21.90
2019-04-21T10:56:31.312Z,19.80
2019-04-21T10:58:56.424Z,20.90
2019-04-21T11:01:27.377Z,19.77
2019-04-21T11:04:21.901Z,19.15
2019-04-21T11:06:48.210Z,17.05
2019-04-21T11:09:17.976Z,17.95
2019-04-21T11:11:49.893Z,17.00
2019-04-21T11:14:19.328Z,17.95
2019-04-21T11:16:51.532Z,19.52
2019-04-21T11:19:22.035Z,20.00
2019-04-21T11:21:52.591Z,23.95
2019-04-21T11:24:22.999Z,19.67
2019-04-21T11:26:53.755Z,21.62
2019-04-21T11:29:23.402Z,19.98
2019-04-21T11:31:52.781Z,17.82
2019-04-21T11:34:23.076Z,16.67
2019-04-21T11:36:52.501Z,21.20
2019-04-21T11:39:37.581Z,23.05
2019-04-21T11:42:01.642Z,18.40
2019-04-21T11:44:31.142Z,20.62
2019-04-21T11:47:00.629Z,20.05
2019-04-21T11:49:32.006Z,16.42
2019-04-21T11:52:00.942Z,15.50
2019-04-21T11:54:30.983Z,19.90
2019-04-21T11:57:03.390Z,18.37
2019-04-21T11:59:31.477Z,15.25
2019-04-21T12:02:01.545Z,16.70
2019-04-21T12:04:31.684Z,15.15
2019-04-21T12:07:01.879Z,17.60
2019-04-21T12:09:31.252Z,19.80
2019-04-21T12:12:01.239Z,14.98
2019-04-21T12:14:32.124Z,19.07
2019-04-21T12:17:02.671Z,15.03
2019-04-21T12:19:33.076Z,17.15
2019-04-21T12:22:10.992Z,16.07
2019-04-21T12:24:36.834Z,13.05
2019-04-21T12:27:06.127Z,12.20
2019-04-21T12:29:35.637Z,15.95
2019-04-21T12:32:09.772Z,13.08
2019-04-21T12:34:39.745Z,14.20
2019-04-21T12:37:09.035Z,14.95
2019-04-21T12:39:38.763Z,11.57
2019-04-21T12:42:09.142Z,7.10
2019-04-21T12:44:39.174Z,11.33
2019-04-21T12:47:09.988Z,13.43
2019-04-21T12:49:39.837Z,13.43
2019-04-21T12:52:11.434Z,9.28
2019-04-21T12:54:41.797Z,9.25
2019-04-21T12:57:11.790Z,12.68
2019-04-21T12:59:42.528Z,11.22
2019-04-21T13:02:11.933Z,12.95
2019-04-21T13:04:42.011Z,12.73
2019-04-21T13:07:11.465Z,11.75
2019-04-21T13:09:42.080Z,14.03
2019-04-21T13:12:13.019Z,14.05
2019-04-21T13:14:42.430Z,10.10
2019-04-21T13:17:13.046Z,9.13
2019-04-21T13:19:43.231Z,9.08
2019-04-21T13:22:12.611Z,10.43
2019-04-21T13:24:42.250Z,9.15
2019-04-21T13:27:12.779Z,9.68
2019-04-21T13:29:42.128Z,8.48
2019-04-21T13:32:12.613Z,8.53
2019-04-21T13:34:42.204Z,8.88
2019-04-21T13:37:11.917Z,8.60
2019-04-21T13:40:18.225Z,7.47
2019-04-21T13:42:36.600Z,8.68
2019-04-21T13:45:02.163Z,8.73
2019-04-21T13:47:30.487Z,4.72
2019-04-21T13:50:01.523Z,7.58
2019-04-21T13:52:33.128Z,6.55
2019-04-21T13:55:03.384Z,11.65
2019-04-21T13:57:32.770Z,10.65
2019-04-21T14:00:03.500Z,8.83
2019-04-21T14:02:34.519Z,10.75
2019-04-21T14:05:11.484Z,10.45
2019-04-21T14:07:39.035Z,15.20
2019-04-21T14:10:11.026Z,9.33
2019-04-21T14:12:40.648Z,12.18
2019-04-21T14:15:12.526Z,9.25
2019-04-21T14:17:42.568Z,10.23
2019-04-21T14:20:13.231Z,9.40
2019-04-21T14:22:43.948Z,8.53
2019-04-21T14:25:15.331Z,8.85
2019-04-21T14:27:47.346Z,9.05
2019-04-21T14:30:18.682Z,6.62
2019-04-21T14:32:48.055Z,10.80
2019-04-21T14:35:18.828Z,8.90
2019-04-21T14:37:48.780Z,9.55
2019-04-21T14:40:23.675Z,10.25
2019-04-21T14:42:49.955Z,9.95
2019-04-21T14:45:20.988Z,9.55
2019-04-21T14:47:54.761Z,10.48
2019-04-21T14:50:44.324Z,10.78
2019-04-21T14:53:18.081Z,12.45
2019-04-21T14:55:49.032Z,10.48
2019-04-21T14:58:19.168Z,11.83
2019-04-21T15:00:52.976Z,10.65
2019-04-21T15:03:23.664Z,15.90
2019-04-21T15:05:53.953Z,10.85
2019-04-21T15:08:24.840Z,11.35
2019-04-21T15:10:54.961Z,11.25
2019-04-21T15:13:25.848Z,12.40
2019-04-21T15:15:56.262Z,8.35
2019-04-21T15:18:26.877Z,12.13
2019-04-21T15:20:57.362Z,6.83
2019-04-21T15:23:28.288Z,12.55
2019-04-21T15:25:57.818Z,13.25
2019-04-21T15:28:31.596Z,13.45
2019-04-21T15:30:58.631Z,11.93
2019-04-21T15:33:28.717Z,15.03
2019-04-21T15:35:58.062Z,12.50
2019-04-21T15:38:27.718Z,13.10
2019-04-21T15:41:01.247Z,9.28
2019-04-21T15:43:28.657Z,10.58
2019-04-21T15:45:58.056Z,10.13
2019-04-21T15:48:28.788Z,11.73
2019-04-21T15:50:59.117Z,10.20
2019-04-21T15:53:31.952Z,5.60
2019-04-21T15:56:03.003Z,11.53
2019-04-21T15:58:40.930Z,9.10
2019-04-21T16:01:20.892Z,9.35
2019-04-21T16:03:50.251Z,10.03
2019-04-21T16:06:19.570Z,10.35
2019-04-21T16:08:52.533Z,11.85
2019-04-21T16:11:19.993Z,9.23
2019-04-21T16:13:49.830Z,10.08
2019-04-21T16:16:20.193Z,9.95
2019-04-21T16:18:50.032Z,14.23
2019-04-21T16:21:19.821Z,10.35
2019-04-21T16:23:50.642Z,9.35
2019-04-21T16:26:20.386Z,10.82
2019-04-21T16:28:51.157Z,11.48
2019-04-21T16:31:20.499Z,14.25
2019-04-21T16:33:51.205Z,14.40
2019-04-21T16:36:20.583Z,10.50
2019-04-21T16:38:51.374Z,11.95
2019-04-21T16:41:20.754Z,9.70
2019-04-21T16:43:51.359Z,10.32
2019-04-21T16:46:21.143Z,11.22
2019-04-21T16:48:51.673Z,10.25
2019-04-21T16:51:22.202Z,12.33
2019-04-21T16:53:53.412Z,11.65
2019-04-21T16:56:24.785Z,11.85
2019-04-21T16:58:56.722Z,13.00
2019-04-21T17:01:29.739Z,12.50
2019-04-21T17:04:00.204Z,14.33
2019-04-21T17:06:31.069Z,14.38
2019-04-21T17:09:00.960Z,13.03
2019-04-21T17:11:35.321Z,10.85
2019-04-21T17:14:03.601Z,10.93
2019-04-21T17:17:15.646Z,13.85
2019-04-21T17:19:13.502Z,11.05
2019-04-21T17:21:35.056Z,11.95
2019-04-21T17:24:04.621Z,9.80
2019-04-21T17:26:39.046Z,11.53
2019-04-21T17:29:06.855Z,11.50
2019-04-21T17:31:37.162Z,9.43
2019-04-21T17:34:12.383Z,10.43
2019-04-21T17:36:39.144Z,15.00
2019-04-21T17:39:09.235Z,10.50
2019-04-21T17:41:54.123Z,13.10
2019-04-21T17:44:10.652Z,9.35
2019-04-21T17:46:46.562Z,10.13
2019-04-21T17:49:11.012Z,11.15
2019-04-21T17:51:54.616Z,9.50
2019-04-21T17:54:33.263Z,9.78
2019-04-21T17:57:16.317Z,10.20
2019-04-21T17:59:56.591Z,10.90
2019-04-21T18:02:23.228Z,11.45
2019-04-21T18:04:49.661Z,10.72
2019-04-21T18:07:27.361Z,11.93
2019-04-21T18:10:00.160Z,10.10
2019-04-21T18:12:29.859Z,9.03
2019-04-21T18:14:54.139Z,13.10
2019-04-21T18:17:14.624Z,9.10
2019-04-21T18:19:47.419Z,10.05
2019-04-21T18:22:38.543Z,8.70
2019-04-21T18:25:12.601Z,9.73
2019-04-21T18:27:38.793Z,7.65
2019-04-21T18:30:28.390Z,11.40
2019-04-21T18:32:58.673Z,15.00
2019-04-21T18:35:36.006Z,12.33
2019-04-21T18:38:20.106Z,17.40
2019-04-21T18:40:46.999Z,22.67
2019-04-21T18:43:53.202Z,18.77
2019-04-21T18:46:17.615Z,17.80
2019-04-21T18:48:36.368Z,14.65
2019-04-21T18:51:04.793Z,18.10
2019-04-21T18:53:44.834Z,15.30
2019-04-21T18:56:05.863Z,15.30
2019-04-21T18:58:32.694Z,14.40
2019-04-21T19:01:07.531Z,16.00
2019-04-21T19:03:39.898Z,10.35
2019-04-21T19:06:11.691Z,11.15
2019-04-21T19:09:01.109Z,12.28
2019-04-21T19:11:23.736Z,13.40
2019-04-21T19:14:17.391Z,12.28
2019-04-21T19:16:33.215Z,10.72
2019-04-21T19:19:31.684Z,13.38
2019-04-21T19:21:24.610Z,11.53
2019-04-21T19:24:10.670Z,11.83
2019-04-21T19:26:37.716Z,10.72
2019-04-21T19:29:12.517Z,13.10
2019-04-21T19:34:01.095Z,13.05
2019-04-21T19:36:21.535Z,11.80
2019-04-21T19:38:59.642Z,13.20
2019-04-21T19:41:34.338Z,14.07
2019-04-21T19:44:14.514Z,14.25
2019-04-21T19:46:40.953Z,14.60
2019-04-21T19:49:24.153Z,12.43
2019-04-21T19:51:42.861Z,13.98
2019-04-21T19:54:06.348Z,12.58
2019-04-21T19:56:30.268Z,13.83
2019-04-21T19:59:01.175Z,16.20
2019-04-21T20:01:31.800Z,14.68
2019-04-21T20:04:02.800Z,14.43
2019-04-21T20:06:45.566Z,18.12
2019-04-21T20:09:24.852Z,16.62
2019-04-21T20:11:51.048Z,19.97
2019-04-21T20:16:53.147Z,14.18
2019-04-21T20:19:12.011Z,16.17
2019-04-21T20:21:40.939Z,15.23
2019-04-21T20:24:14.493Z,15.23
2019-04-21T20:26:46.012Z,16.90
2019-04-21T20:29:27.682Z,14.47
2019-04-21T20:31:55.075Z,18.73
2019-04-21T20:34:33.797Z,14.50
2019-04-21T20:37:02.160Z,15.20
2019-04-21T20:39:21.259Z,13.40
2019-04-21T20:42:01.787Z,15.60
2019-04-21T20:44:38.747Z,16.12
2019-04-21T20:47:06.572Z,14.58
2019-04-21T20:49:33.606Z,14.85
2019-04-21T20:52:10.755Z,12.47
2019-04-21T20:54:41.033Z,14.65
2019-04-21T20:57:11.312Z,16.17
2019-04-21T20:59:37.569Z,15.72
2019-04-21T21:02:10.138Z,16.67
2019-04-21T21:04:34.960Z,16.17
2019-04-21T21:07:28.220Z,17.10
2019-04-21T21:09:50.126Z,16.23
2019-04-21T21:14:46.944Z,16.23
2019-04-21T21:17:34.057Z,16.48
2019-04-21T21:19:55.764Z,16.32
2019-04-21T21:22:14.266Z,21.48
2019-04-21T21:24:53.576Z,21.52
2019-04-21T21:27:19.695Z,21.27
2019-04-21T21:29:56.672Z,22.90
2019-04-21T21:32:27.348Z,19.70
2019-04-21T21:34:57.836Z,24.20
2019-04-21T21:37:38.089Z,20.55
2019-04-21T21:40:02.839Z,17.48
2019-04-21T21:42:24.140Z,20.27
2019-04-21T21:44:50.489Z,23.80
2019-04-21T21:47:32.085Z,20.20
2019-04-21T21:50:01.209Z,20.35
2019-04-21T21:52:32.761Z,20.02
2019-04-21T21:54:49.808Z,21.33
2019-04-21T21:57:20.390Z,21.35
2019-04-21T21:59:54.286Z,26.85
2019-04-21T22:02:32.910Z,22.27
2019-04-21T22:05:01.436Z,22.22
2019-04-21T22:07:28.058Z,23.40
2019-04-21T22:09:54.693Z,23.40
2019-04-21T22:12:25.703Z,28.75
2019-04-21T22:14:55.674Z,21.10
2019-04-21T22:17:41.910Z,21.93
2019-04-21T22:20:14.230Z,23.73
2019-04-21T22:22:38.849Z,25.55
2019-04-21T22:25:09.477Z,23.02
2019-04-21T22:27:30.719Z,24.57
2019-04-21T22:30:03.864Z,25.70
2019-04-21T22:32:34.609Z,26.55
2019-04-21T22:35:08.800Z,23.42
2019-04-21T22:37:43.709Z,24.92
2019-04-21T22:40:19.277Z,28.80
2019-04-21T22:42:50.089Z,28.00
2019-04-21T22:45:11.290Z,26.68
2019-04-21T22:47:42.665Z,27.58
2019-04-21T22:50:17.596Z,30.02
2019-04-21T22:52:50.551Z,27.70
2019-04-21T22:55:22.629Z,26.35
2019-04-21T22:57:51.840Z,28.23
2019-04-21T23:00:22.343Z,27.17
2019-04-21T23:05:32.909Z,28.25
2019-04-21T23:08:01.395Z,27.15
2019-04-21T23:10:27.409Z,30.43
2019-04-21T23:12:59.621Z,28.83
2019-04-21T23:15:37.508Z,31.57
2019-04-21T23:18:20.407Z,33.80
2019-04-21T23:20:47.779Z,34.48
2019-04-21T23:23:23.577Z,30.10
2019-04-21T23:25:47.176Z,31.62
2019-04-21T23:28:17.725Z,29.23
2019-04-21T23:31:00.631Z,27.62
2019-04-21T23:33:12.050Z,28.62
2019-04-21T23:35:43.465Z,27.93
2019-04-21T23:38:10.998Z,31.87
2019-04-21T23:40:48.811Z,30.65
2019-04-21T23:43:17.249Z,28.70
2019-04-21T23:45:45.331Z,31.75
2019-04-21T23:48:30.119Z,28.75
2019-04-21T23:50:56.105Z,27.37
2019-04-21T23:53:17.381Z,29.65
2019-04-21T23:55:47.396Z,32.03
2019-04-21T23:58:22.222Z,28.90
